createdAt,value
2018-12-11T00:00:00.854Z,3.67
2018-12-11T00:02:31.225Z,4.40
2018-12-11T00:05:01.604Z,3.77
2018-12-11T00:07:31.980Z,4.30
2018-12-11T00:10:02.620Z,6.80
2018-12-11T00:12:32.947Z,6.30
2018-12-11T00:15:03.329Z,5.07
2018-12-11T00:17:34.907Z,5.00
2018-12-11T00:20:05.345Z,4.57
2018-12-11T00:22:35.730Z,3.77
2018-12-11T00:25:06.176Z,3.30
2018-12-11T00:27:36.817Z,3.43
2018-12-11T00:30:08.019Z,3.30
2018-12-11T00:32:39.371Z,3.33
2018-12-11T00:35:10.955Z,3.60
2018-12-11T00:37:41.283Z,3.70
2018-12-11T00:40:11.719Z,3.70
2018-12-11T00:42:42.859Z,3.60
2018-12-11T00:45:14.064Z,3.47
2018-12-11T00:47:46.682Z,3.80
2018-12-11T00:50:18.298Z,3.37
2018-12-11T00:52:48.674Z,3.60
2018-12-11T00:55:19.138Z,4.20
2018-12-11T00:57:50.554Z,3.23
2018-12-11T01:00:21.016Z,3.80
2018-12-11T01:02:51.399Z,3.57
2018-12-11T01:05:22.605Z,3.90
2018-12-11T01:07:52.977Z,3.70
2018-12-11T01:10:24.205Z,4.00
2018-12-11T01:12:54.580Z,3.63
2018-12-11T01:15:24.986Z,3.33
2018-12-11T01:18:01.304Z,3.67
2018-12-11T01:20:31.932Z,3.97
2018-12-11T01:23:02.324Z,3.93
2018-12-11T01:28:17.683Z,3.33
2018-12-11T01:30:48.108Z,3.60
2018-12-11T01:33:18.478Z,4.03
2018-12-11T01:35:48.916Z,4.53
2018-12-11T01:38:22.365Z,4.30
2018-12-11T01:40:55.024Z,4.27
2018-12-11T01:43:25.405Z,3.50
2018-12-11T01:45:55.795Z,3.80
2018-12-11T01:48:26.413Z,3.80
2018-12-11T01:50:56.847Z,3.83
2018-12-11T01:53:27.217Z,4.00
2018-12-11T01:55:57.639Z,3.80
2018-12-11T01:58:28.481Z,3.73
2018-12-11T02:00:58.865Z,3.67
2018-12-11T02:03:29.325Z,3.97
2018-12-11T02:05:59.704Z,3.70
2018-12-11T02:08:30.086Z,4.13
2018-12-11T02:11:00.523Z,4.20
2018-12-11T02:13:30.898Z,4.43
2018-12-11T02:16:01.333Z,3.67
2018-12-11T02:18:31.705Z,4.00
2018-12-11T02:21:02.138Z,3.60
2018-12-11T02:23:33.475Z,3.70
2018-12-11T02:26:03.909Z,3.80
2018-12-11T02:28:34.294Z,4.17
2018-12-11T02:31:04.740Z,4.27
2018-12-11T02:33:35.810Z,3.90
2018-12-11T02:36:07.215Z,3.70
2018-12-11T02:38:37.588Z,3.77
2018-12-11T02:41:07.985Z,3.50
2018-12-11T02:43:38.359Z,3.70
2018-12-11T02:46:15.961Z,3.80
2018-12-11T02:48:46.331Z,4.00
2018-12-11T02:51:16.708Z,4.20
2018-12-11T02:53:47.335Z,3.67
2018-12-11T02:56:21.906Z,3.70
2018-12-11T02:58:53.322Z,4.00
2018-12-11T03:01:23.704Z,4.27
2018-12-11T03:03:54.087Z,3.60
2018-12-11T03:06:24.467Z,3.60
2018-12-11T03:08:54.845Z,4.00
2018-12-11T03:11:37.561Z,3.70
2018-12-11T03:14:07.765Z,3.77
2018-12-11T03:16:38.208Z,3.67
2018-12-11T03:19:08.593Z,3.63
2018-12-11T03:21:38.977Z,4.30
2018-12-11T03:24:11.135Z,3.27
2018-12-11T03:26:41.450Z,3.40
2018-12-11T03:29:12.114Z,3.90
2018-12-11T03:31:42.779Z,4.00
2018-12-11T03:34:15.213Z,4.37
2018-12-11T03:36:45.600Z,4.33
2018-12-11T03:39:17.916Z,4.40
2018-12-11T03:41:48.347Z,4.40
2018-12-11T03:44:19.502Z,3.80
2018-12-11T03:46:49.870Z,3.60
2018-12-11T03:49:20.317Z,3.57
2018-12-11T03:51:50.699Z,3.60
2018-12-11T03:54:21.078Z,3.40
2018-12-11T03:56:51.451Z,3.40
2018-12-11T03:59:22.859Z,3.63
2018-12-11T04:01:53.184Z,3.60
2018-12-11T04:04:23.631Z,3.40
2018-12-11T04:06:54.790Z,3.77
2018-12-11T04:09:25.163Z,3.40
2018-12-11T04:11:55.592Z,3.90
2018-12-11T04:14:25.971Z,3.63
2018-12-11T04:16:56.283Z,3.43
2018-12-11T04:19:26.735Z,3.40
2018-12-11T04:21:57.053Z,4.07
2018-12-11T04:24:35.852Z,3.77
2018-12-11T04:27:06.241Z,4.20
2018-12-11T04:29:36.636Z,3.70
2018-12-11T04:32:07.323Z,3.53
2018-12-11T04:34:37.694Z,3.47
2018-12-11T04:37:08.072Z,3.37
2018-12-11T04:39:38.857Z,3.30
2018-12-11T04:42:11.293Z,3.30
2018-12-11T04:44:42.379Z,3.50
2018-12-11T04:47:14.859Z,3.67
2018-12-11T04:49:52.457Z,3.70
2018-12-11T04:52:26.934Z,3.90
2018-12-11T04:54:57.372Z,3.73
2018-12-11T04:57:27.744Z,3.67
2018-12-11T04:59:58.533Z,3.40
2018-12-11T05:02:28.888Z,3.80
2018-12-11T05:04:59.464Z,3.40
2018-12-11T05:07:29.893Z,3.60
2018-12-11T05:10:00.214Z,3.80
2018-12-11T05:12:30.592Z,3.97
2018-12-11T05:15:01.230Z,4.00
2018-12-11T05:17:35.654Z,4.17
2018-12-11T05:20:10.191Z,3.73
2018-12-11T05:22:40.543Z,3.63
2018-12-11T05:25:32.531Z,4.17
2018-12-11T05:28:02.856Z,4.13
2018-12-11T05:30:33.228Z,3.90
2018-12-11T05:33:03.680Z,3.87
2018-12-11T05:35:34.828Z,3.87
2018-12-11T05:40:49.556Z,3.90
2018-12-11T05:43:20.952Z,4.20
2018-12-11T05:45:52.036Z,4.00
2018-12-11T05:48:25.534Z,3.67
2018-12-11T05:51:02.052Z,3.93
2018-12-11T05:53:32.421Z,3.70
2018-12-11T05:56:05.285Z,4.00
2018-12-11T05:58:37.003Z,4.03
2018-12-11T06:01:07.072Z,3.93
2018-12-11T06:03:37.382Z,4.10
2018-12-11T06:06:08.594Z,3.97
2018-12-11T06:08:38.979Z,4.33
2018-12-11T06:11:09.367Z,4.30
2018-12-11T06:13:39.745Z,4.33
2018-12-11T06:16:12.244Z,4.13
2018-12-11T06:18:42.630Z,4.57
2018-12-11T06:21:15.337Z,4.47
2018-12-11T06:24:05.859Z,4.80
2018-12-11T06:26:36.230Z,5.40
2018-12-11T06:29:06.675Z,4.67
2018-12-11T06:31:55.327Z,4.30
2018-12-11T06:34:27.807Z,4.80
2018-12-11T06:37:00.227Z,4.80
2018-12-11T06:39:30.616Z,4.73
2018-12-11T06:42:03.349Z,4.80
2018-12-11T06:44:33.731Z,4.33
2018-12-11T06:47:04.112Z,4.60
2018-12-11T06:49:34.782Z,4.80
2018-12-11T06:52:05.158Z,4.57
2018-12-11T06:54:38.313Z,4.43
2018-12-11T06:57:08.687Z,4.97
2018-12-11T06:59:39.894Z,4.33
2018-12-11T07:02:10.270Z,4.87
2018-12-11T07:04:40.654Z,5.07
2018-12-11T07:07:11.034Z,5.50
2018-12-11T07:09:43.528Z,5.27
2018-12-11T07:12:35.264Z,5.30
2018-12-11T07:15:05.716Z,5.40
2018-12-11T07:17:36.282Z,5.13
2018-12-11T07:20:06.737Z,5.07
2018-12-11T07:22:56.676Z,6.50
2018-12-11T07:25:28.077Z,5.43
2018-12-11T07:28:17.836Z,4.70
2018-12-11T07:30:48.227Z,4.60
2018-12-11T07:33:20.843Z,5.23
2018-12-11T07:35:51.225Z,4.53
2018-12-11T07:38:21.686Z,5.20
2018-12-11T07:40:52.065Z,5.03
2018-12-11T07:43:22.454Z,5.57
2018-12-11T07:45:52.837Z,5.40
2018-12-11T07:48:23.224Z,4.67
2018-12-11T07:51:14.051Z,4.93
2018-12-11T07:53:44.426Z,5.23
2018-12-11T07:56:14.867Z,5.33
2018-12-11T07:58:45.250Z,4.63
2018-12-11T08:01:16.455Z,5.10
2018-12-11T08:04:08.195Z,4.33
2018-12-11T08:06:39.601Z,4.63
2018-12-11T08:09:09.971Z,4.40
2018-12-11T08:11:40.595Z,4.13
2018-12-11T08:14:10.988Z,3.93
2018-12-11T08:16:42.440Z,4.72
2018-12-11T08:19:12.827Z,4.10
2018-12-11T08:21:43.212Z,3.70
2018-12-11T08:24:16.648Z,3.67
2018-12-11T08:26:47.214Z,4.30
2018-12-11T08:29:17.664Z,4.40
2018-12-11T08:31:48.037Z,4.63
2018-12-11T08:34:18.436Z,3.87
2018-12-11T08:37:09.295Z,4.13
2018-12-11T08:39:40.633Z,4.10
2018-12-11T08:42:11.784Z,4.27
2018-12-11T08:44:42.236Z,3.93
2018-12-11T08:47:12.670Z,3.50
2018-12-11T08:49:43.049Z,4.10
2018-12-11T08:52:14.486Z,4.23
2018-12-11T08:54:44.853Z,4.70
2018-12-11T08:57:15.424Z,4.77
2018-12-11T08:59:48.314Z,4.80
2018-12-11T09:02:18.626Z,5.20
2018-12-11T09:04:48.944Z,5.03
2018-12-11T09:07:23.423Z,5.43
2018-12-11T09:09:54.625Z,5.10
2018-12-11T09:12:27.035Z,5.03
2018-12-11T09:14:57.418Z,5.83
2018-12-11T09:17:47.257Z,5.10
2018-12-11T09:20:18.605Z,5.50
2018-12-11T09:22:49.804Z,5.80
2018-12-11T09:25:20.179Z,5.77
2018-12-11T09:27:51.405Z,5.77
2018-12-11T09:30:21.787Z,5.60
2018-12-11T09:32:52.169Z,5.60
2018-12-11T09:35:23.371Z,6.13
2018-12-11T09:37:59.956Z,6.47
2018-12-11T09:40:30.351Z,6.33
2018-12-11T09:43:00.799Z,5.80
2018-12-11T09:45:31.175Z,6.67
2018-12-11T09:48:01.624Z,6.03
2018-12-11T09:50:32.235Z,5.90
2018-12-11T09:53:03.710Z,6.40
2018-12-11T09:55:34.839Z,6.83
2018-12-11T10:00:49.032Z,7.53
2018-12-11T10:03:19.655Z,6.40
2018-12-11T10:05:50.104Z,6.37
2018-12-11T10:08:26.769Z,6.20
2018-12-11T10:10:57.153Z,6.33
2018-12-11T10:13:28.353Z,6.07
2018-12-11T10:16:05.895Z,6.97
2018-12-11T10:18:38.155Z,7.53
2018-12-11T10:21:08.527Z,7.60
2018-12-11T10:23:38.853Z,7.63
2018-12-11T10:26:09.256Z,6.10
2018-12-11T10:28:40.465Z,6.33
2018-12-11T10:31:10.852Z,6.30
2018-12-11T10:33:45.330Z,6.17
2018-12-11T10:36:16.546Z,6.70
2018-12-11T10:38:47.004Z,6.70
2018-12-11T10:41:17.386Z,6.80
2018-12-11T10:43:47.774Z,6.33
2018-12-11T10:46:18.923Z,6.87
2018-12-11T10:48:49.365Z,14.70
2018-12-11T10:51:19.748Z,13.40
2018-12-11T10:53:50.196Z,11.20
2018-12-11T10:56:21.517Z,8.30
2018-12-11T10:58:52.464Z,7.70
2018-12-11T11:01:22.845Z,5.80
2018-12-11T11:03:59.432Z,5.60
2018-12-11T11:06:49.193Z,6.20
2018-12-11T11:09:19.637Z,5.63
2018-12-11T11:11:54.102Z,5.40
2018-12-11T11:14:25.578Z,7.20
2018-12-11T11:16:55.898Z,8.50
2018-12-11T11:19:27.038Z,8.47
2018-12-11T11:21:58.388Z,8.10
2018-12-11T11:24:28.762Z,7.73
2018-12-11T11:26:59.136Z,7.80
2018-12-11T11:29:29.589Z,7.23
2018-12-11T11:31:59.988Z,8.07
2018-12-11T11:34:31.142Z,9.23
2018-12-11T11:37:01.710Z,8.27
2018-12-11T11:39:32.153Z,7.73
2018-12-11T11:42:02.526Z,8.63
2018-12-11T11:44:33.734Z,8.53
2018-12-11T11:47:04.121Z,8.77
2018-12-11T11:49:36.607Z,8.37
2018-12-11T11:52:13.103Z,7.93
2018-12-11T11:54:44.727Z,8.60
2018-12-11T11:57:18.520Z,7.43
2018-12-11T11:59:49.924Z,7.80
2018-12-11T12:02:20.584Z,7.07
2018-12-11T12:04:51.737Z,8.03
2018-12-11T12:07:23.146Z,6.70
2018-12-11T12:09:53.583Z,6.30
2018-12-11T12:12:23.953Z,6.90
2018-12-11T12:14:54.397Z,7.53
2018-12-11T12:17:30.915Z,7.40
2018-12-11T12:20:01.361Z,7.37
2018-12-11T12:22:32.443Z,7.33
2018-12-11T12:25:10.037Z,7.50
2018-12-11T12:27:40.410Z,7.23
2018-12-11T12:30:11.627Z,7.07
2018-12-11T12:32:42.010Z,7.03
2018-12-11T12:35:13.666Z,7.67
2018-12-11T12:37:44.283Z,7.30
2018-12-11T12:40:15.682Z,6.93
2018-12-11T12:42:49.117Z,7.33
2018-12-11T12:45:20.335Z,7.20
2018-12-11T12:47:50.742Z,7.27
2018-12-11T12:50:22.560Z,7.43
2018-12-11T12:52:53.711Z,12.70
2018-12-11T12:55:24.867Z,15.90
2018-12-11T12:57:55.267Z,13.77
2018-12-11T13:00:25.659Z,18.30
2018-12-11T13:03:15.477Z,16.00
2018-12-11T13:05:45.922Z,12.77
2018-12-11T13:08:17.066Z,12.57
2018-12-11T13:10:47.526Z,11.53
2018-12-11T13:13:21.994Z,9.97
2018-12-11T13:15:52.422Z,10.10
2018-12-11T13:18:22.799Z,8.93
2018-12-11T13:20:56.251Z,8.20
2018-12-11T13:23:26.684Z,8.53
2018-12-11T13:25:57.072Z,8.33
2018-12-11T13:28:27.450Z,8.60
2018-12-11T13:30:57.889Z,8.63
2018-12-11T13:33:28.260Z,7.27
2018-12-11T13:35:59.721Z,7.43
2018-12-11T13:38:30.094Z,6.67
2018-12-11T13:41:00.530Z,6.57
2018-12-11T13:43:30.916Z,6.40
2018-12-11T13:46:02.289Z,5.90
2018-12-11T13:48:32.732Z,5.40
2018-12-11T13:51:03.372Z,5.53
2018-12-11T13:53:47.925Z,5.80
2018-12-11T13:56:18.363Z,5.50
2018-12-11T13:58:56.131Z,4.97
2018-12-11T14:01:26.573Z,5.67
2018-12-11T14:03:57.978Z,4.83
2018-12-11T14:06:28.407Z,5.13
2018-12-11T14:11:42.493Z,5.03
2018-12-11T14:14:12.866Z,5.47
2018-12-11T14:16:50.615Z,5.03
2018-12-11T14:19:22.769Z,5.50
2018-12-11T14:21:53.153Z,4.87
2018-12-11T14:24:29.989Z,5.03
2018-12-11T14:27:01.456Z,5.40
2018-12-11T14:29:31.900Z,4.80
2018-12-11T14:32:02.334Z,5.20
2018-12-11T14:34:32.708Z,5.20
2018-12-11T14:37:03.141Z,4.73
2018-12-11T14:39:33.526Z,5.30
2018-12-11T14:42:08.077Z,5.20
2018-12-11T14:44:38.461Z,5.10
2018-12-11T14:47:10.948Z,5.17
2018-12-11T14:50:00.709Z,4.40
2018-12-11T14:52:31.149Z,4.60
2018-12-11T14:55:03.578Z,4.83
2018-12-11T14:57:34.017Z,4.97
2018-12-11T15:00:05.154Z,5.10
2018-12-11T15:02:35.600Z,4.90
2018-12-11T15:05:05.972Z,4.73
2018-12-11T15:07:36.411Z,4.23
2018-12-11T15:10:07.806Z,4.50
2018-12-11T15:12:38.521Z,5.23
2018-12-11T15:15:09.655Z,4.30
2018-12-11T15:17:40.037Z,4.13
2018-12-11T15:20:12.529Z,5.00
2018-12-11T15:22:43.205Z,6.27
2018-12-11T15:25:14.353Z,4.83
2018-12-11T15:27:46.014Z,4.30
2018-12-11T15:30:16.380Z,4.63
2018-12-11T15:32:48.742Z,5.53
2018-12-11T15:35:23.262Z,5.23
2018-12-11T15:37:53.695Z,4.73
2018-12-11T15:40:24.291Z,7.80
2018-12-11T15:42:55.688Z,5.90
2018-12-11T15:45:33.383Z,6.73
2018-12-11T15:48:03.827Z,7.10
2018-12-11T15:50:34.203Z,7.93
2018-12-11T15:53:05.670Z,8.93
2018-12-11T15:55:35.991Z,8.60
2018-12-11T15:58:06.437Z,6.37
2018-12-11T16:00:36.811Z,6.03
2018-12-11T16:03:08.376Z,5.87
2018-12-11T16:05:38.772Z,6.53
2018-12-11T16:08:09.142Z,6.97
2018-12-11T16:10:39.777Z,6.60
2018-12-11T16:13:10.089Z,6.60
2018-12-11T16:15:41.436Z,7.40
2018-12-11T16:18:12.648Z,10.10
2018-12-11T16:20:42.971Z,13.80
2018-12-11T16:23:13.543Z,13.90
2018-12-11T16:25:44.886Z,11.93
2018-12-11T16:28:15.515Z,9.53
2018-12-11T16:30:45.834Z,8.63
2018-12-11T16:33:16.483Z,8.47
2018-12-11T16:35:47.110Z,7.10
2018-12-11T16:38:17.735Z,8.03
2018-12-11T16:40:49.204Z,11.00
2018-12-11T16:43:19.526Z,9.90
2018-12-11T16:45:49.843Z,10.80
2018-12-11T16:48:21.001Z,10.03
2018-12-11T16:50:51.622Z,9.60
2018-12-11T16:53:22.968Z,9.97
2018-12-11T16:55:54.505Z,8.80
2018-12-11T16:58:25.154Z,8.77
2018-12-11T17:00:57.749Z,9.07
2018-12-11T17:03:28.778Z,8.70
2018-12-11T17:05:59.405Z,8.63
2018-12-11T17:08:29.987Z,7.90
2018-12-11T17:11:00.301Z,6.07
2018-12-11T17:13:30.712Z,11.27
2018-12-11T17:16:01.273Z,9.50
2018-12-11T17:18:31.950Z,7.87
2018-12-11T17:21:02.290Z,8.33
2018-12-11T17:23:32.907Z,9.70
2018-12-11T17:26:03.996Z,8.03
2018-12-11T17:28:39.199Z,10.03
2018-12-11T17:31:10.340Z,9.70
2018-12-11T17:33:41.692Z,9.93
2018-12-11T17:36:12.035Z,9.20
2018-12-11T17:38:42.355Z,8.03
2018-12-11T17:41:13.770Z,8.10
2018-12-11T17:43:44.419Z,8.73
2018-12-11T17:46:14.980Z,9.37
2018-12-11T17:48:45.307Z,9.80
2018-12-11T17:51:15.641Z,10.63
2018-12-11T17:53:49.340Z,9.80
2018-12-11T17:56:21.775Z,10.20
2018-12-11T17:58:52.875Z,9.03
2018-12-11T18:01:44.970Z,10.37
2018-12-11T18:04:15.586Z,8.70
2018-12-11T18:06:46.739Z,8.33
2018-12-11T18:09:17.964Z,8.30
2018-12-11T18:11:48.346Z,9.27
2018-12-11T18:14:21.693Z,8.30
2018-12-11T18:16:52.847Z,8.73
2018-12-11T18:19:23.289Z,10.40
2018-12-11T18:24:56.753Z,15.40
2018-12-11T18:27:27.450Z,14.27
2018-12-11T18:29:57.898Z,13.43
2018-12-11T18:32:28.275Z,14.53
2018-12-11T18:34:59.627Z,12.13
2018-12-11T18:37:30.770Z,10.77
2018-12-11T18:40:02.019Z,11.27
2018-12-11T18:42:33.378Z,11.97
2018-12-11T18:45:04.469Z,11.60
2018-12-11T18:47:34.899Z,11.03
2018-12-11T18:50:09.429Z,12.80
2018-12-11T18:52:40.837Z,13.87
2018-12-11T18:55:11.163Z,15.13
2018-12-11T18:57:41.569Z,13.80
2018-12-11T19:00:12.663Z,13.50
2018-12-11T19:03:02.705Z,13.73
2018-12-11T19:05:34.154Z,13.70
2018-12-11T19:08:05.307Z,13.13
2018-12-11T19:10:35.623Z,11.57
2018-12-11T19:13:06.830Z,12.17
2018-12-11T19:15:38.311Z,12.90
2018-12-11T19:18:08.687Z,12.03
2018-12-11T19:20:45.217Z,12.53
2018-12-11T19:23:16.309Z,13.50
2018-12-11T19:26:08.176Z,13.20
2018-12-11T19:28:38.553Z,13.77
2018-12-11T19:31:13.032Z,14.27
2018-12-11T19:33:45.415Z,11.93
2018-12-11T19:36:16.572Z,13.17
2018-12-11T19:38:47.910Z,13.10
2018-12-11T19:41:18.581Z,14.13
2018-12-11T19:43:50.949Z,14.13
2018-12-11T19:46:26.686Z,15.13
2018-12-11T19:48:57.010Z,14.87
2018-12-11T19:51:27.394Z,14.60
2018-12-11T19:53:58.798Z,12.67
2018-12-11T19:56:29.263Z,14.37
2018-12-11T19:59:00.079Z,15.93
2018-12-11T20:01:30.463Z,15.90
2018-12-11T20:04:01.189Z,14.77
2018-12-11T20:06:31.566Z,16.57
2018-12-11T20:09:09.200Z,17.20
2018-12-11T20:11:40.350Z,16.23
2018-12-11T20:14:10.724Z,15.67
2018-12-11T20:16:43.267Z,15.37
2018-12-11T20:19:14.611Z,15.37
2018-12-11T20:21:45.818Z,14.67
2018-12-11T20:24:16.198Z,13.80
2018-12-11T20:26:46.587Z,13.70
2018-12-11T20:29:16.974Z,13.73
2018-12-11T20:31:47.423Z,13.77
2018-12-11T20:34:17.804Z,14.00
2018-12-11T20:36:48.419Z,14.33
2018-12-11T20:39:19.565Z,12.27
2018-12-11T20:41:50.669Z,13.37
2018-12-11T20:44:20.988Z,13.00
2018-12-11T20:46:52.463Z,14.60
2018-12-11T20:49:22.835Z,15.00
2018-12-11T20:51:53.226Z,15.77
2018-12-11T20:54:24.322Z,17.47
2018-12-11T20:57:14.078Z,18.90
2018-12-11T20:59:44.455Z,18.63
2018-12-11T21:02:15.614Z,30.43
2018-12-11T21:04:45.949Z,34.67
2018-12-11T21:07:17.087Z,27.03
2018-12-11T21:09:47.675Z,24.17
2018-12-11T21:12:18.072Z,20.80
2018-12-11T21:14:48.449Z,15.77
2018-12-11T21:17:18.852Z,15.23
2018-12-11T21:19:55.561Z,14.03
2018-12-11T21:22:26.009Z,14.87
2018-12-11T21:24:57.163Z,17.07
2018-12-11T21:27:28.380Z,16.57
2018-12-11T21:29:58.711Z,16.67
2018-12-11T21:32:29.182Z,17.53
2018-12-11T21:34:59.566Z,14.90
2018-12-11T21:37:30.306Z,15.27
2018-12-11T21:40:00.650Z,14.57
2018-12-11T21:42:31.778Z,14.80
2018-12-11T21:45:02.973Z,12.67
2018-12-11T21:47:33.669Z,13.90
2018-12-11T21:50:04.823Z,12.67
2018-12-11T21:52:35.456Z,12.00
2018-12-11T21:55:05.813Z,11.70
2018-12-11T21:57:43.508Z,10.83
2018-12-11T22:00:14.205Z,10.73
2018-12-11T22:02:45.859Z,11.37
2018-12-11T22:05:16.241Z,11.53
2018-12-11T22:07:46.864Z,11.77
2018-12-11T22:10:37.385Z,10.90
2018-12-11T22:13:08.158Z,11.53
2018-12-11T22:15:39.315Z,11.20
2018-12-11T22:18:09.693Z,12.30
2018-12-11T22:20:40.062Z,11.67
2018-12-11T22:23:10.449Z,12.40
2018-12-11T22:25:40.832Z,12.73
2018-12-11T22:28:11.299Z,10.80
2018-12-11T22:30:41.690Z,13.13
2018-12-11T22:33:12.064Z,12.00
2018-12-11T22:38:25.616Z,13.67
2018-12-11T22:40:56.282Z,12.90
2018-12-11T22:43:26.654Z,13.30
2018-12-11T22:45:59.272Z,14.07
2018-12-11T22:48:29.718Z,13.80
2018-12-11T22:51:00.096Z,12.23
2018-12-11T22:53:30.479Z,13.90
2018-12-11T22:56:00.932Z,13.20
2018-12-11T22:58:31.306Z,11.87
2018-12-11T23:01:02.452Z,12.37
2018-12-11T23:03:32.883Z,13.57
2018-12-11T23:06:03.973Z,14.23
2018-12-11T23:08:34.359Z,12.50
2018-12-11T23:11:06.571Z,13.73
2018-12-11T23:13:41.246Z,13.97
2018-12-11T23:16:13.207Z,13.17
2018-12-11T23:18:44.298Z,14.13
2018-12-11T23:21:16.727Z,14.07
2018-12-11T23:23:47.871Z,12.00
2018-12-11T23:26:19.221Z,12.60
2018-12-11T23:28:49.851Z,13.70
2018-12-11T23:31:21.011Z,12.77
2018-12-11T23:33:51.331Z,12.93
2018-12-11T23:36:23.443Z,13.37
2018-12-11T23:39:14.281Z,12.33
2018-12-11T23:41:44.603Z,13.60
2018-12-11T23:44:14.981Z,13.60
2018-12-11T23:46:46.458Z,12.33
2018-12-11T23:49:17.857Z,11.90
2018-12-11T23:51:49.308Z,13.10
2018-12-11T23:54:20.752Z,12.40
2018-12-11T23:56:51.938Z,12.57
2018-12-11T23:59:22.258Z,12.40
